TimeMST,TemperatureF,Dew PointF,Humidity,Sea Level PressureIn,VisibilityMPH,Wind Direction,Wind SpeedMPH,Gust SpeedMPH,PrecipitationIn,Events,Conditions,WindDirDegrees,DateUTC
12:52 AM,24.1,7.0,48,30.30,10.0,NNE,13.8,-,N/A,,Overcast,20,2013-03-01 07:52:00
1:52 AM,24.1,8.1,51,30.32,10.0,NE,17.3,-,N/A,,Partly Cloudy,40,2013-03-01 08:52:00
2:52 AM,21.9,8.1,55,30.32,10.0,NE,10.4,-,N/A,,Clear,40,2013-03-01 09:52:00
3:52 AM,19.4,8.6,63,30.27,10.0,NE,9.2,-,N/A,,Clear,40,2013-03-01 10:52:00
4:52 AM,19.0,9.0,65,30.35,10.0,NNE,6.9,-,N/A,,Clear,20,2013-03-01 11:52:00
5:52 AM,17.1,9.0,71,30.40,10.0,Calm,Calm,-,N/A,,Clear,0,2013-03-01 12:52:00
6:52 AM,10.9,5.0,77,30.48,10.0,SSW,5.8,-,N/A,,Clear,200,2013-03-01 13:52:00
7:52 AM,23.0,10.0,58,30.41,10.0,South,5.8,-,N/A,,Clear,190,2013-03-01 14:52:00
8:52 AM,27.0,10.9,51,30.39,10.0,WSW,6.9,-,N/A,,Clear,240,2013-03-01 15:52:00
9:52 AM,32.0,12.0,44,30.38,10.0,Variable,6.9,-,N/A,,Clear,0,2013-03-01 16:52:00
10:52 AM,35.1,12.9,40,30.35,10.0,West,5.8,16.1,N/A,,Clear,280,2013-03-01 17:52:00
11:52 AM,39.9,15.1,36,30.32,10.0,West,8.1,-,N/A,,Clear,260,2013-03-01 18:52:00
12:52 PM,42.1,15.1,34,30.30,10.0,WNW,10.4,-,N/A,,Clear,300,2013-03-01 19:52:00
1:52 PM,45.0,16.0,31,30.25,10.0,WSW,11.5,20.7,N/A,,Scattered Clouds,250,2013-03-01 20:52:00
2:52 PM,46.9,14.0,27,30.25,10.0,NW,24.2,32.2,N/A,,Partly Cloudy,310,2013-03-01 21:52:00
3:52 PM,46.9,14.0,27,30.26,10.0,NNW,19.6,26.5,N/A,,Clear,330,2013-03-01 22:52:00
4:52 PM,44.6,14.0,29,30.27,10.0,NNW,12.7,21.9,N/A,,Clear,330,2013-03-01 23:52:00
5:52 PM,41.0,15.8,36,30.28,10.0,NNW,12.7,-,N/A,,Clear,340,2013-03-02 00:52:00
6:52 PM,37.9,15.1,39,30.38,10.0,North,12.7,-,N/A,,Clear,350,2013-03-02 01:52:00
7:52 PM,35.6,17.6,48,30.31,10.0,North,13.8,21.9,N/A,,Clear,10,2013-03-02 02:52:00
8:52 PM,28.0,16.0,61,30.40,10.0,ENE,8.1,-,N/A,,Clear,60,2013-03-02 03:52:00
9:52 PM,28.9,17.1,61,30.39,10.0,NE,12.7,-,N/A,,Clear,40,2013-03-02 04:52:00
10:52 PM,30.0,17.1,59,30.38,10.0,NNE,11.5,-,N/A,,Clear,30,2013-03-02 05:52:00
11:52 PM,27.0,16.0,63,30.39,10.0,Calm,Calm,-,N/A,,Clear,0,2013-03-02 06:52:00